createdAt,value
2019-01-03T00:01:33.930Z,-0.40
2019-01-03T00:04:04.377Z,-0.40
2019-01-03T00:06:51.050Z,-0.40
2019-01-03T00:09:24.400Z,-0.40
2019-01-03T00:12:11.118Z,-0.40
2019-01-03T00:14:44.298Z,-0.40
2019-01-03T00:17:33.105Z,-0.50
2019-01-03T00:20:06.317Z,-0.50
2019-01-03T00:22:53.421Z,-0.50
2019-01-03T00:25:35.897Z,-0.50
2019-01-03T00:28:10.870Z,-0.50
2019-01-03T00:30:47.321Z,-0.50
2019-01-03T00:33:20.874Z,-0.50
2019-01-03T00:36:06.046Z,-0.50
2019-01-03T00:38:45.254Z,-0.50
2019-01-03T00:41:18.512Z,-0.60
2019-01-03T00:43:48.954Z,-0.60
2019-01-03T00:46:28.626Z,-0.60
2019-01-03T00:48:59.064Z,-0.60
2019-01-03T00:51:38.544Z,-0.60
2019-01-03T00:54:27.215Z,-0.60
2019-01-03T00:57:03.534Z,-0.60
2019-01-03T00:59:36.544Z,-0.60
2019-01-03T01:02:12.790Z,-0.70
2019-01-03T01:04:48.808Z,-0.70
2019-01-03T01:07:19.253Z,-0.70
2019-01-03T01:09:55.550Z,-0.70
2019-01-03T01:12:42.105Z,-0.70
2019-01-03T01:15:21.639Z,-0.70
2019-01-03T01:17:52.090Z,-0.70
2019-01-03T01:20:25.249Z,-0.70
2019-01-03T01:22:58.152Z,-0.70
2019-01-03T01:25:31.428Z,-0.70
2019-01-03T01:28:02.192Z,-0.70
2019-01-03T01:30:38.298Z,-0.80
2019-01-03T01:33:17.488Z,-0.80
2019-01-03T01:35:50.965Z,-0.80
2019-01-03T01:38:33.251Z,-0.80
2019-01-03T01:41:12.752Z,-0.80
2019-01-03T01:43:59.344Z,-0.90
2019-01-03T01:46:44.771Z,-0.90
2019-01-03T01:49:21.184Z,-0.90
2019-01-03T01:51:54.332Z,-1.00
2019-01-03T01:54:39.983Z,-1.00
2019-01-03T01:57:45.212Z,-1.00
2019-01-03T02:00:18.596Z,-1.00
2019-01-03T02:03:01.015Z,-1.10
2019-01-03T02:05:40.541Z,-1.10
2019-01-03T02:08:27.153Z,-1.10
2019-01-03T02:10:57.581Z,-1.10
2019-01-03T02:13:45.992Z,-1.10
2019-01-03T02:16:22.457Z,-1.10
2019-01-03T02:19:11.308Z,-1.10
2019-01-03T02:21:50.504Z,-1.10
2019-01-03T02:24:23.620Z,-1.10
2019-01-03T02:26:54.035Z,-1.10
2019-01-03T02:29:24.432Z,-1.10
2019-01-03T02:32:11.127Z,-1.10
2019-01-03T02:34:57.733Z,-1.10
2019-01-03T02:37:37.168Z,-1.10
2019-01-03T02:40:13.467Z,-1.20
2019-01-03T02:43:00.616Z,-1.10
2019-01-03T02:45:40.037Z,-1.20
2019-01-03T02:48:10.447Z,-1.20
2019-01-03T02:50:40.876Z,-1.20
2019-01-03T02:53:11.262Z,-1.20
2019-01-03T02:55:44.360Z,-1.20
2019-01-03T02:58:32.910Z,-1.20
2019-01-03T03:01:09.084Z,-1.30
2019-01-03T03:03:45.470Z,-1.30
2019-01-03T03:06:21.604Z,-1.30
2019-01-03T03:09:07.096Z,-1.30
2019-01-03T03:11:49.455Z,-1.40
2019-01-03T03:14:25.876Z,-1.40
2019-01-03T03:17:12.804Z,-1.40
2019-01-03T03:19:46.306Z,-1.40
2019-01-03T03:22:22.640Z,-1.50
2019-01-03T03:24:53.654Z,-1.50
2019-01-03T03:27:36.118Z,-1.50
2019-01-03T03:30:12.883Z,-1.50
2019-01-03T03:32:58.646Z,-1.60
2019-01-03T03:35:29.069Z,-1.50
2019-01-03T03:38:15.753Z,-1.60
2019-01-03T03:40:58.555Z,-1.60
2019-01-03T03:43:31.651Z,-1.60
2019-01-03T03:46:02.081Z,-1.60
2019-01-03T03:48:38.397Z,-1.60
2019-01-03T03:51:27.150Z,-1.60
2019-01-03T03:54:03.338Z,-1.70
2019-01-03T03:56:39.487Z,-1.70
2019-01-03T03:59:26.172Z,-1.70
2019-01-03T04:01:56.587Z,-1.70
2019-01-03T04:04:26.983Z,-1.70
2019-01-03T04:07:12.666Z,-1.70
2019-01-03T04:09:48.838Z,-1.70
2019-01-03T04:12:22.299Z,-1.80
2019-01-03T04:14:58.928Z,-1.80
2019-01-03T04:17:38.244Z,-1.80
2019-01-03T04:20:14.990Z,-1.80
2019-01-03T04:22:45.413Z,-1.80
2019-01-03T04:25:15.839Z,-1.80
2019-01-03T04:27:53.629Z,-1.80
2019-01-03T04:30:26.772Z,-1.90
2019-01-03T04:32:59.607Z,-1.90
2019-01-03T04:35:30.031Z,-1.90
2019-01-03T04:38:18.764Z,-1.90
2019-01-03T04:40:54.753Z,-1.90
2019-01-03T04:43:27.699Z,-1.90
2019-01-03T04:46:01.101Z,-1.90
2019-01-03T04:48:31.518Z,-1.90
2019-01-03T04:51:10.861Z,-2.00
2019-01-03T04:53:44.106Z,-2.00
2019-01-03T04:56:17.168Z,-2.00
2019-01-03T04:58:56.748Z,-2.00
2019-01-03T05:01:47.465Z,-2.00
2019-01-03T05:04:36.838Z,-2.00
2019-01-03T05:07:23.482Z,-2.10
2019-01-03T05:09:53.904Z,-2.10
2019-01-03T05:12:27.283Z,-2.10
2019-01-03T05:15:12.812Z,-2.10
2019-01-03T05:17:52.163Z,-2.10
2019-01-03T05:20:38.937Z,-2.10
2019-01-03T05:23:24.428Z,-2.10
2019-01-03T05:26:03.567Z,-2.20
2019-01-03T05:28:49.918Z,-2.20
2019-01-03T05:31:36.485Z,-2.20
2019-01-03T05:34:18.747Z,-2.20
2019-01-03T05:36:49.174Z,-2.20
2019-01-03T05:39:19.565Z,-2.30
2019-01-03T05:41:56.137Z,-2.30
2019-01-03T05:44:44.653Z,-2.30
2019-01-03T05:47:31.310Z,-2.30
2019-01-03T05:50:10.499Z,-2.40
2019-01-03T05:52:57.438Z,-2.40
2019-01-03T05:55:39.716Z,-2.40
2019-01-03T05:58:23.253Z,-2.40
2019-01-03T06:00:53.640Z,-2.50
2019-01-03T06:03:40.096Z,-2.50
2019-01-03T06:06:25.588Z,-2.50
2019-01-03T06:09:12.631Z,-2.50
2019-01-03T06:11:48.491Z,-2.50
2019-01-03T06:14:31.214Z,-2.50
2019-01-03T06:17:10.348Z,-2.50
2019-01-03T06:19:43.767Z,-2.50
2019-01-03T06:22:14.155Z,-2.60
2019-01-03T06:24:56.569Z,-2.60
2019-01-03T06:27:36.254Z,-2.60
2019-01-03T06:30:10.047Z,-2.60
2019-01-03T06:32:52.520Z,-2.60
2019-01-03T06:35:37.973Z,-2.60
2019-01-03T06:38:24.837Z,-2.60
2019-01-03T06:41:01.308Z,-2.60
2019-01-03T06:43:34.368Z,-2.70
2019-01-03T06:46:13.896Z,-2.70
2019-01-03T06:48:44.296Z,-2.70
2019-01-03T06:51:14.689Z,-2.70
2019-01-03T06:53:51.085Z,-2.70
2019-01-03T06:56:24.368Z,-2.80
2019-01-03T06:59:04.789Z,-2.80
2019-01-03T07:01:47.267Z,-2.80
2019-01-03T07:04:17.692Z,-2.80
2019-01-03T07:06:57.312Z,-2.80
2019-01-03T07:09:30.751Z,-2.80
2019-01-03T07:12:09.997Z,-2.80
2019-01-03T07:14:55.499Z,-2.80
2019-01-03T07:17:34.758Z,-2.80
2019-01-03T07:20:17.432Z,-2.80
2019-01-03T07:23:04.390Z,-2.80
2019-01-03T07:25:51.400Z,-2.80
2019-01-03T07:28:22.907Z,-2.80
2019-01-03T07:30:53.292Z,-2.80
2019-01-03T07:33:29.468Z,-2.80
2019-01-03T07:36:11.727Z,-2.80
2019-01-03T07:38:47.847Z,-2.80
2019-01-03T07:41:34.484Z,-2.80
2019-01-03T07:44:22.999Z,-2.80
2019-01-03T07:46:59.336Z,-2.80
2019-01-03T07:49:46.251Z,-2.80
2019-01-03T07:52:25.672Z,-2.80
2019-01-03T07:55:11.536Z,-2.80
2019-01-03T07:57:44.409Z,-2.80
2019-01-03T08:00:27.276Z,-2.80
2019-01-03T08:02:57.672Z,-2.80
2019-01-03T08:05:33.728Z,-2.70
2019-01-03T08:08:20.088Z,-2.70
2019-01-03T08:11:08.894Z,-2.70
2019-01-03T08:13:55.636Z,-2.70
2019-01-03T08:16:42.179Z,-2.70
2019-01-03T08:19:21.310Z,-2.70
2019-01-03T08:22:08.043Z,-2.70
2019-01-03T08:24:47.280Z,-2.70
2019-01-03T08:27:21.760Z,-2.60
2019-01-03T08:29:52.143Z,-2.60
2019-01-03T08:32:22.562Z,-2.60
2019-01-03T08:34:52.960Z,-2.60
2019-01-03T08:37:35.416Z,-2.60
2019-01-03T08:40:22.429Z,-2.60
2019-01-03T08:43:09.157Z,-2.60
2019-01-03T08:45:39.553Z,-2.50
2019-01-03T08:48:09.985Z,-2.40
2019-01-03T08:50:49.408Z,-2.40
2019-01-03T08:53:22.636Z,-2.40
2019-01-03T08:56:08.422Z,-2.30
2019-01-03T08:58:47.708Z,-2.30
2019-01-03T09:01:24.184Z,-2.20
2019-01-03T09:04:12.924Z,-2.20
2019-01-03T09:06:58.259Z,-2.20
2019-01-03T09:09:45.113Z,-2.20
2019-01-03T09:12:27.791Z,-2.20
2019-01-03T09:15:07.288Z,-2.10
2019-01-03T09:17:50.018Z,-2.10
2019-01-03T09:20:23.213Z,-2.10
2019-01-03T09:22:59.108Z,-2.10
2019-01-03T09:25:44.533Z,-2.00
2019-01-03T09:28:18.670Z,-1.90
2019-01-03T09:31:05.096Z,-1.90
2019-01-03T09:33:38.250Z,-1.80
2019-01-03T09:36:20.986Z,-1.70
2019-01-03T09:38:57.653Z,-1.60
2019-01-03T09:41:40.166Z,-1.50
2019-01-03T09:44:28.457Z,-1.40
2019-01-03T09:46:57.164Z,-1.20
2019-01-03T09:49:25.954Z,-1.20
2019-01-03T09:51:54.702Z,-1.10
2019-01-03T09:54:23.477Z,-1.10
2019-01-03T09:56:52.224Z,-1.10
2019-01-03T09:59:21.456Z,-1.00
2019-01-03T10:01:50.208Z,-1.00
2019-01-03T10:04:18.984Z,-0.90
2019-01-03T10:06:47.736Z,-0.80
2019-01-03T10:09:16.486Z,-0.80
2019-01-03T10:11:45.255Z,-0.70
2019-01-03T10:14:14.089Z,-0.60
2019-01-03T10:16:42.878Z,-0.50
2019-01-03T10:19:11.696Z,-0.40
2019-01-03T10:21:40.469Z,-0.40
2019-01-03T10:24:09.220Z,-0.30
2019-01-03T10:26:38.006Z,-0.20
2019-01-03T10:29:06.761Z,-0.10
2019-01-03T10:31:36.627Z,0.00
2019-01-03T10:34:05.444Z,0.00
2019-01-03T10:36:34.229Z,0.10
2019-01-03T10:39:03.744Z,0.20
2019-01-03T10:41:32.521Z,0.20
2019-01-03T10:44:01.264Z,0.30
2019-01-03T10:46:30.044Z,0.40
2019-01-03T10:48:58.788Z,0.40
2019-01-03T10:51:27.556Z,0.40
2019-01-03T10:53:56.369Z,0.50
2019-01-03T10:56:25.140Z,0.60
2019-01-03T10:58:53.888Z,0.70
2019-01-03T11:01:23.191Z,0.70
2019-01-03T11:03:51.935Z,0.80
2019-01-03T11:06:20.715Z,0.90
2019-01-03T11:08:49.464Z,0.90
2019-01-03T11:11:18.235Z,1.00
2019-01-03T11:13:46.978Z,1.00
2019-01-03T11:16:15.760Z,1.10
2019-01-03T11:18:44.503Z,1.20
2019-01-03T11:21:13.279Z,1.20
2019-01-03T11:23:42.024Z,1.30
2019-01-03T11:26:10.877Z,1.30
2019-01-03T11:28:39.695Z,1.40
2019-01-03T11:31:09.344Z,1.40
2019-01-03T11:33:38.092Z,1.40
2019-01-03T11:36:06.871Z,1.50
2019-01-03T11:38:35.612Z,1.50
2019-01-03T11:41:04.392Z,1.60
2019-01-03T11:43:33.209Z,1.60
2019-01-03T11:46:02.053Z,1.70
2019-01-03T11:48:30.796Z,1.70
2019-01-03T11:50:59.573Z,1.80
2019-01-03T11:53:28.366Z,1.80
2019-01-03T11:55:57.093Z,1.80
2019-01-03T11:58:26.245Z,1.90
2019-01-03T12:00:54.987Z,1.80
2019-01-03T12:03:23.778Z,1.90
2019-01-03T12:05:52.552Z,1.90
2019-01-03T12:08:21.304Z,1.90
2019-01-03T12:10:50.087Z,1.90
2019-01-03T12:13:18.837Z,1.90
2019-01-03T12:15:47.616Z,2.00
2019-01-03T12:18:16.428Z,2.00
2019-01-03T12:20:45.281Z,2.00
2019-01-03T12:23:14.019Z,2.00
2019-01-03T12:25:42.804Z,2.10
2019-01-03T12:28:11.552Z,2.10
2019-01-03T12:30:41.236Z,2.10
2019-01-03T12:33:10.016Z,2.10
2019-01-03T12:35:38.760Z,2.10
2019-01-03T12:38:07.544Z,2.10
2019-01-03T12:40:36.368Z,2.10
2019-01-03T12:43:05.217Z,2.10
2019-01-03T12:45:34.025Z,2.10
2019-01-03T12:48:02.799Z,2.10
2019-01-03T12:50:31.621Z,2.10
2019-01-03T12:53:00.407Z,2.10
2019-01-03T12:55:29.154Z,2.10
2019-01-03T12:57:57.996Z,2.10
2019-01-03T13:00:26.817Z,2.10
2019-01-03T13:02:55.600Z,2.10
2019-01-03T13:05:24.348Z,2.20
2019-01-03T13:07:53.204Z,2.20
2019-01-03T13:10:21.940Z,2.20
2019-01-03T13:12:50.725Z,2.10
2019-01-03T13:15:19.485Z,2.20
2019-01-03T13:17:48.262Z,2.20
2019-01-03T13:20:17.018Z,2.20
2019-01-03T13:22:45.795Z,2.10
2019-01-03T13:25:14.540Z,2.10
2019-01-03T13:27:44.320Z,2.00
2019-01-03T13:30:13.069Z,2.00
2019-01-03T13:32:41.840Z,2.00
2019-01-03T13:35:10.587Z,2.00
2019-01-03T13:37:39.365Z,2.00
2019-01-03T13:40:08.120Z,2.00
2019-01-03T13:42:36.895Z,2.00
2019-01-03T13:45:06.162Z,2.00
2019-01-03T13:47:34.887Z,1.90
2019-01-03T13:50:04.765Z,1.80
2019-01-03T13:52:33.508Z,1.70
2019-01-03T13:55:02.280Z,1.70
2019-01-03T13:57:32.064Z,1.60
2019-01-03T14:00:00.837Z,1.50
2019-01-03T14:02:29.586Z,1.50
2019-01-03T14:04:58.363Z,1.50
2019-01-03T14:07:27.172Z,1.40
2019-01-03T14:09:57.713Z,1.40
2019-01-03T14:12:26.460Z,1.40
2019-01-03T14:14:55.316Z,1.30
2019-01-03T14:17:24.157Z,1.30
2019-01-03T14:19:52.924Z,1.30
2019-01-03T14:22:21.675Z,1.30
2019-01-03T14:24:50.443Z,1.30
2019-01-03T14:27:19.185Z,1.20
2019-01-03T14:29:48.859Z,1.20
2019-01-03T14:32:17.677Z,1.20
2019-01-03T14:34:47.918Z,1.10
2019-01-03T14:37:16.695Z,1.00
2019-01-03T14:39:45.431Z,1.00
2019-01-03T14:42:14.204Z,0.90
2019-01-03T14:44:42.980Z,0.90
2019-01-03T14:47:11.724Z,0.80
2019-01-03T14:49:40.469Z,0.70
2019-01-03T14:52:09.251Z,0.60
2019-01-03T14:54:37.993Z,0.60
2019-01-03T14:57:06.768Z,0.50
2019-01-03T14:59:36.528Z,0.50
2019-01-03T15:02:05.440Z,0.50
2019-01-03T15:04:34.280Z,0.40
2019-01-03T15:07:03.064Z,0.40
2019-01-03T15:09:31.815Z,0.40
2019-01-03T15:12:00.596Z,0.30
2019-01-03T15:14:29.340Z,0.30
2019-01-03T15:16:58.190Z,0.30
2019-01-03T15:19:27.574Z,0.30
2019-01-03T15:21:56.407Z,0.20
2019-01-03T15:24:25.143Z,0.20
2019-01-03T15:26:53.925Z,0.30
2019-01-03T15:29:22.668Z,0.20
2019-01-03T15:31:51.439Z,0.20
2019-01-03T15:34:20.292Z,0.20
2019-01-03T15:36:49.036Z,0.20
2019-01-03T15:39:17.808Z,0.20
2019-01-03T15:41:46.553Z,0.20
2019-01-03T15:44:15.310Z,0.20
2019-01-03T15:46:44.084Z,0.10
2019-01-03T15:49:12.829Z,0.10
2019-01-03T15:51:41.603Z,0.10
2019-01-03T15:54:10.352Z,0.10
2019-01-03T15:56:39.120Z,0.00
2019-01-03T15:59:07.869Z,0.00
2019-01-03T16:01:36.650Z,0.00
2019-01-03T16:04:05.395Z,0.00
2019-01-03T16:06:34.175Z,0.00
2019-01-03T16:09:03.982Z,0.00
2019-01-03T16:11:32.753Z,0.00
2019-01-03T16:14:01.512Z,0.00
2019-01-03T16:16:30.272Z,0.00
2019-01-03T16:18:59.011Z,0.00
2019-01-03T16:21:27.793Z,0.00
2019-01-03T16:23:56.535Z,0.00
2019-01-03T16:26:25.320Z,0.00
2019-01-03T16:28:54.064Z,0.00
2019-01-03T16:31:22.845Z,0.00
2019-01-03T16:33:51.589Z,0.00
2019-01-03T16:36:20.372Z,0.00
2019-01-03T16:38:49.119Z,0.00
2019-01-03T16:41:17.884Z,0.00
2019-01-03T16:43:46.632Z,-0.10
2019-01-03T16:46:15.772Z,-0.10
2019-01-03T16:48:44.582Z,-0.10
2019-01-03T16:51:13.354Z,-0.10
2019-01-03T16:53:42.108Z,-0.20
2019-01-03T16:56:10.896Z,-0.20
2019-01-03T16:58:39.644Z,-0.20
2019-01-03T17:01:08.427Z,-0.20
2019-01-03T17:03:37.259Z,-0.20
2019-01-03T17:06:06.111Z,-0.30
2019-01-03T17:08:36.331Z,-0.30
2019-01-03T17:11:05.114Z,-0.30
2019-01-03T17:13:33.873Z,-0.40
2019-01-03T17:16:02.668Z,-0.40
2019-01-03T17:18:31.409Z,-0.40
2019-01-03T17:21:00.195Z,-0.50
2019-01-03T17:23:28.948Z,-0.50
2019-01-03T17:26:02.401Z,-0.50
2019-01-03T17:28:35.075Z,-0.50
2019-01-03T17:31:04.226Z,-0.50
2019-01-03T17:33:33.109Z,-0.50
2019-01-03T17:36:01.924Z,-0.50
2019-01-03T17:38:30.780Z,-0.50
2019-01-03T17:40:59.553Z,-0.50
2019-01-03T17:43:28.342Z,-0.50
2019-01-03T17:45:57.093Z,-0.50
2019-01-03T17:48:28.803Z,-0.50
2019-01-03T17:50:57.609Z,-0.50
2019-01-03T17:53:26.385Z,-0.50
2019-01-03T17:55:55.150Z,-0.50
2019-01-03T17:58:23.918Z,-0.50
2019-01-03T18:00:52.844Z,-0.50
2019-01-03T18:03:21.620Z,-0.50
2019-01-03T18:05:50.369Z,-0.50
2019-01-03T18:08:19.158Z,-0.60
2019-01-03T18:10:47.905Z,-0.50
2019-01-03T18:13:16.692Z,-0.50
2019-01-03T18:15:45.441Z,-0.50
2019-01-03T18:18:14.222Z,-0.60
2019-01-03T18:20:43.032Z,-0.50
2019-01-03T18:23:11.856Z,-0.50
2019-01-03T18:25:40.673Z,-0.60
2019-01-03T18:28:09.461Z,-0.60
2019-01-03T18:30:39.448Z,-0.60
2019-01-03T18:33:08.300Z,-0.50
2019-01-03T18:35:37.056Z,-0.60
2019-01-03T18:38:05.851Z,-0.60
2019-01-03T18:40:34.596Z,-0.60
2019-01-03T18:43:03.440Z,-0.60
2019-01-03T18:45:32.233Z,-0.60
2019-01-03T18:48:01.111Z,-0.60
2019-01-03T18:50:29.836Z,-0.60
2019-01-03T18:52:59.484Z,-0.60
2019-01-03T18:55:28.227Z,-0.60
2019-01-03T18:57:56.980Z,-0.60
2019-01-03T19:00:25.760Z,-0.60
2019-01-03T19:02:54.522Z,-0.60
2019-01-03T19:05:23.372Z,-0.60
2019-01-03T19:07:52.115Z,-0.60
2019-01-03T19:10:20.900Z,-0.60
2019-01-03T19:12:49.653Z,-0.60
2019-01-03T19:15:18.431Z,-0.60
2019-01-03T19:17:47.184Z,-0.60
2019-01-03T19:20:15.944Z,-0.70
2019-01-03T19:22:44.894Z,-0.70
2019-01-03T19:25:16.510Z,-0.70
2019-01-03T19:27:45.315Z,-0.70
2019-01-03T19:30:14.056Z,-0.70
2019-01-03T19:32:42.841Z,-0.70
2019-01-03T19:35:12.390Z,-0.70
2019-01-03T19:37:41.168Z,-0.70
2019-01-03T19:40:12.511Z,-0.70
2019-01-03T19:42:43.936Z,-0.70
2019-01-03T19:45:13.260Z,-0.70
2019-01-03T19:47:42.037Z,-0.70
2019-01-03T19:50:16.601Z,-0.70
2019-01-03T19:52:45.400Z,-0.70
2019-01-03T19:55:14.399Z,-0.70
2019-01-03T19:57:56.825Z,-0.70
2019-01-03T20:00:25.815Z,-0.80
2019-01-03T20:02:54.713Z,-0.80
2019-01-03T20:05:23.557Z,-0.80
2019-01-03T20:07:52.258Z,-0.80
2019-01-03T20:10:21.094Z,-0.80
2019-01-03T20:12:49.878Z,-0.80
2019-01-03T20:15:18.729Z,-0.80
2019-01-03T20:17:47.468Z,-0.80
2019-01-03T20:20:16.243Z,-0.80
2019-01-03T20:22:45.001Z,-0.80
2019-01-03T20:25:13.795Z,-0.80
2019-01-03T20:27:42.619Z,-0.80
2019-01-03T20:30:11.704Z,-0.80
2019-01-03T20:32:40.465Z,-0.80
2019-01-03T20:35:09.344Z,-0.80
2019-01-03T20:37:38.160Z,-0.90
2019-01-03T20:40:09.308Z,-0.80
2019-01-03T20:42:38.272Z,-0.80
2019-01-03T20:45:10.062Z,-0.80
2019-01-03T20:47:38.928Z,-0.80
2019-01-03T20:50:10.025Z,-0.80
2019-01-03T20:52:39.041Z,-0.80
2019-01-03T20:55:09.059Z,-0.80
2019-01-03T20:57:40.991Z,-0.90
2019-01-03T21:00:15.108Z,-0.80
2019-01-03T21:02:44.104Z,-0.80
2019-01-03T21:05:12.994Z,-0.80
2019-01-03T21:07:43.468Z,-0.90
2019-01-03T21:10:13.010Z,-0.90
2019-01-03T21:12:41.834Z,-0.80
2019-01-03T21:15:13.714Z,-0.80
2019-01-03T21:17:42.666Z,-0.90
2019-01-03T21:20:13.614Z,-0.80
2019-01-03T21:22:42.460Z,-0.90
2019-01-03T21:25:11.531Z,-0.90
2019-01-03T21:27:40.556Z,-0.90
2019-01-03T21:30:12.663Z,-0.90
2019-01-03T21:32:41.420Z,-0.90
2019-01-03T21:35:10.411Z,-0.90
2019-01-03T21:37:39.161Z,-0.90
2019-01-03T21:40:10.453Z,-0.90
2019-01-03T21:42:39.188Z,-0.90
2019-01-03T21:45:08.673Z,-0.90
2019-01-03T21:47:37.432Z,-0.90
2019-01-03T21:50:09.308Z,-0.90
2019-01-03T21:52:38.060Z,-0.90
2019-01-03T21:55:06.865Z,-0.80
2019-01-03T21:57:37.144Z,-0.80
2019-01-03T22:00:08.899Z,-0.90
2019-01-03T22:02:37.651Z,-0.80
2019-01-03T22:05:06.641Z,-0.80
2019-01-03T22:07:35.417Z,-0.80
2019-01-03T22:10:06.638Z,-0.80
2019-01-03T22:12:35.415Z,-0.80
2019-01-03T22:15:04.868Z,-0.80
2019-01-03T22:17:33.653Z,-0.80
2019-01-03T22:20:02.436Z,-0.80
2019-01-03T22:22:31.193Z,-0.80
2019-01-03T22:25:00.080Z,-0.80
2019-01-03T22:27:28.997Z,-0.80
2019-01-03T22:29:57.776Z,-0.80
2019-01-03T22:32:26.635Z,-0.70
2019-01-03T22:34:55.561Z,-0.80
2019-01-03T22:37:25.624Z,-0.70
2019-01-03T22:39:54.724Z,-0.80
2019-01-03T22:42:23.501Z,-0.70
2019-01-03T22:44:52.353Z,-0.70
2019-01-03T22:47:21.169Z,-0.70
2019-01-03T22:49:49.943Z,-0.70
2019-01-03T22:52:19.033Z,-0.70
2019-01-03T22:54:47.784Z,-0.70
2019-01-03T22:57:16.567Z,-0.70
2019-01-03T22:59:45.312Z,-0.60
2019-01-03T23:02:14.095Z,-0.70
2019-01-03T23:04:48.912Z,-0.70
2019-01-03T23:07:13.348Z,-0.70
2019-01-03T23:09:42.097Z,-0.70
2019-01-03T23:12:10.879Z,-0.70
2019-01-03T23:14:39.631Z,-0.70
2019-01-03T23:17:08.428Z,-0.70
2019-01-03T23:19:37.169Z,-0.70
2019-01-03T23:22:05.988Z,-0.70
2019-01-03T23:24:34.709Z,-0.70
2019-01-03T23:27:03.495Z,-0.80
2019-01-03T23:29:32.257Z,-0.70
2019-01-03T23:32:01.114Z,-0.80
2019-01-03T23:34:29.863Z,-0.80
2019-01-03T23:36:58.659Z,-0.80
2019-01-03T23:39:27.401Z,-0.80
2019-01-03T23:41:56.179Z,-0.80
2019-01-03T23:44:24.932Z,-0.80
2019-01-03T23:46:53.821Z,-0.80
2019-01-03T23:49:22.581Z,-0.80
2019-01-03T23:51:51.398Z,-0.80
2019-01-03T23:54:20.189Z,-0.80
2019-01-03T23:56:49.016Z,-0.80
2019-01-03T23:59:17.727Z,-0.80
